Time;durP1;ratioP1;P1;durP2;ratioP2;P2;SDS_P1;SDS_P2;PMS_P1;PMS_P2;Temp;Humidity;BMP_temperature;BMP_pressure;BME280_temperature;BME280_humidity;BME280_pressure;Samples;Min_cycle;Max_cycle;Signal;HPM_P1;HPM_P2
2023/02/09 00:00:28;;;;;;;59.65;35.35;;;22.80;31.40;;;;;;6138631;28;85495;-52
2023/02/09 00:03:28;;;;;;;64.20;37.75;;;22.80;31.30;;;;;;6126272;28;84124;-53
2023/02/09 00:06:29;;;;;;;61.95;37.50;;;22.80;31.30;;;;;;6125380;28;83091;-54
2023/02/09 00:09:30;;;;;;;65.93;37.45;;;22.70;31.10;;;;;;6125734;28;83389;-62
2023/02/09 00:15:50;;;;;;;58.90;37.60;;;22.70;31.10;;;;;;6101567;28;82961;-61
2023/02/09 00:18:50;;;;;;;64.93;38.35;;;22.60;31.00;;;;;;6103366;28;83917;-62
2023/02/09 00:21:51;;;;;;;63.45;38.33;;;22.60;31.10;;;;;;6102411;28;83391;-61
2023/02/09 00:24:51;;;;;;;61.53;36.70;;;22.60;31.00;;;;;;6114403;28;83553;-62
2023/02/09 00:27:52;;;;;;;61.83;36.33;;;22.60;31.10;;;;;;6101891;28;92765;-64
2023/02/09 00:30:52;;;;;;;62.05;37.22;;;22.50;31.10;;;;;;6102942;28;82975;-64
2023/02/09 00:33:53;;;;;;;67.85;37.83;;;22.50;31.40;;;;;;6116496;28;83609;-64
2023/02/09 00:36:53;;;;;;;58.78;35.90;;;22.50;31.40;;;;;;6104982;28;83528;-63
2023/02/09 00:39:54;;;;;;;60.58;36.40;;;22.50;31.80;;;;;;6125660;28;83510;-63
2023/02/09 00:42:54;;;;;;;61.90;38.13;;;22.40;31.90;;;;;;6120461;28;83014;-63
2023/02/09 00:45:55;;;;;;;64.65;38.50;;;22.40;31.70;;;;;;6104779;28;84238;-63
2023/02/09 00:48:56;;;;;;;63.53;38.33;;;22.40;31.70;;;;;;6111490;28;82836;-65
2023/02/09 00:51:56;;;;;;;64.13;38.03;;;22.40;31.60;;;;;;6125453;28;84387;-63
2023/02/09 00:54:57;;;;;;;63.25;36.78;;;22.30;31.70;;;;;;6117150;28;85996;-63
2023/02/09 00:57:57;;;;;;;60.55;36.75;;;22.30;31.60;;;;;;6119661;28;82827;-62
2023/02/09 01:00:58;;;;;;;61.67;37.08;;;22.30;31.70;;;;;;6105897;28;84463;-63
2023/02/09 01:03:58;;;;;;;58.55;34.70;;;22.30;31.70;;;;;;6131627;28;86663;-63
2023/02/09 01:06:59;;;;;;;62.22;36.67;;;22.20;31.80;;;;;;6124835;28;82952;-64
2023/02/09 01:10:01;;;;;;;56.55;33.90;;;22.20;31.80;;;;;;6111430;28;83565;-64
2023/02/09 01:13:02;;;;;;;58.30;34.03;;;22.20;32.60;;;;;;6115475;28;84957;-63
2023/02/09 01:16:02;;;;;;;55.35;33.65;;;22.20;32.00;;;;;;6117586;28;82981;-63
2023/02/09 01:19:03;;;;;;;54.55;33.00;;;22.20;32.00;;;;;;6123910;28;83289;-62
2023/02/09 01:22:03;;;;;;;55.80;31.95;;;22.20;32.10;;;;;;6124827;28;83512;-63
2023/02/09 01:25:04;;;;;;;53.55;33.17;;;22.20;32.20;;;;;;6125024;28;83389;-61
2023/02/09 01:28:05;;;;;;;58.08;33.97;;;22.20;32.40;;;;;;6119909;28;84715;-62
2023/02/09 01:31:05;;;;;;;55.58;33.45;;;22.20;32.60;;;;;;6120289;28;83053;-62
2023/02/09 01:34:06;;;;;;;55.05;32.42;;;22.20;32.60;;;;;;6124955;28;84574;-62
2023/02/09 01:37:06;;;;;;;52.03;31.50;;;22.10;32.80;;;;;;6135837;28;84989;-62
2023/02/09 01:40:07;;;;;;;52.20;31.65;;;22.10;32.70;;;;;;6124726;28;83711;-60
2023/02/09 01:43:08;;;;;;;47.85;30.15;;;22.10;32.80;;;;;;6135292;28;83410;-63
2023/02/09 01:46:08;;;;;;;54.67;31.77;;;22.10;32.90;;;;;;6121077;28;83980;-64
2023/02/09 01:49:09;;;;;;;52.88;31.38;;;22.10;33.00;;;;;;6118427;28;83450;-64
2023/02/09 01:52:10;;;;;;;54.42;30.88;;;22.10;33.00;;;;;;6121164;28;82917;-63
2023/02/09 01:55:13;;;;;;;49.00;30.50;;;22.10;33.00;;;;;;6123597;28;90753;-64
2023/02/09 01:58:14;;;;;;;54.55;30.92;;;22.10;32.90;;;;;;6116507;28;86159;-61
2023/02/09 02:01:14;;;;;;;53.85;32.28;;;22.10;32.90;;;;;;6111366;28;83497;-64
2023/02/09 02:04:15;;;;;;;48.08;30.58;;;22.10;32.90;;;;;;6135977;28;83702;-63
2023/02/09 02:07:16;;;;;;;52.33;30.98;;;22.10;33.20;;;;;;6118956;28;84292;-64
2023/02/09 02:10:16;;;;;;;51.33;31.17;;;22.10;33.00;;;;;;6126069;28;84910;-63
2023/02/09 02:13:17;;;;;;;51.92;30.23;;;22.00;33.00;;;;;;6124235;28;86437;-63
2023/02/09 02:16:17;;;;;;;49.55;31.13;;;22.00;32.80;;;;;;6114960;28;83355;-63
2023/02/09 02:19:18;;;;;;;50.33;30.30;;;22.00;32.80;;;;;;6113036;28;83146;-50
2023/02/09 02:22:18;;;;;;;52.63;30.95;;;22.00;32.70;;;;;;6114087;28;83573;-50
2023/02/09 02:25:19;;;;;;;52.58;32.78;;;22.00;32.90;;;;;;6123782;28;86179;-49
2023/02/09 02:28:19;;;;;;;51.45;31.13;;;22.00;32.70;;;;;;6126132;28;85756;-50
2023/02/09 02:31:20;;;;;;;56.63;34.40;;;21.90;32.70;;;;;;6106547;28;82928;-49
2023/02/09 02:34:20;;;;;;;56.92;32.05;;;21.90;32.50;;;;;;6104118;28;83213;-52
2023/02/09 02:37:21;;;;;;;55.13;31.80;;;21.90;32.70;;;;;;6110744;28;84287;-49
2023/02/09 02:40:21;;;;;;;50.85;31.40;;;21.90;32.60;;;;;;6128846;28;83159;-52
2023/02/09 02:43:22;;;;;;;55.05;32.72;;;21.90;32.60;;;;;;6128898;28;86852;-49
2023/02/09 02:46:23;;;;;;;56.13;32.38;;;21.90;32.40;;;;;;6127067;28;83188;-51
2023/02/09 02:49:23;;;;;;;51.90;31.15;;;21.90;32.50;;;;;;6104710;28;83621;-51
2023/02/09 02:52:24;;;;;;;54.60;32.55;;;21.90;32.50;;;;;;6119467;28;83069;-52
2023/02/09 02:55:24;;;;;;;52.20;31.60;;;21.90;32.50;;;;;;6127708;28;83312;-53
2023/02/09 02:58:25;;;;;;;51.65;32.90;;;21.90;32.40;;;;;;6126636;28;82724;-53
2023/02/09 03:01:25;;;;;;;54.97;32.00;;;21.90;32.40;;;;;;6139568;28;83235;-49
2023/02/09 03:04:26;;;;;;;55.75;33.55;;;21.80;32.30;;;;;;6126334;28;86208;-51
2023/02/09 03:07:26;;;;;;;50.60;32.03;;;21.90;32.50;;;;;;6125933;28;84038;-50
2023/02/09 03:10:27;;;;;;;51.92;31.65;;;21.90;32.50;;;;;;6127830;28;85778;-50
2023/02/09 03:13:27;;;;;;;53.38;31.80;;;21.80;32.50;;;;;;6122302;28;82874;-53
2023/02/09 03:16:28;;;;;;;54.05;32.95;;;21.80;32.40;;;;;;6137084;28;83448;-52
2023/02/09 03:19:28;;;;;;;47.90;30.77;;;21.80;32.40;;;;;;6140354;28;83204;-52
2023/02/09 03:22:29;;;;;;;57.72;31.90;;;21.80;32.20;;;;;;6126071;28;83012;-52
2023/02/09 03:25:29;;;;;;;52.97;31.90;;;21.80;32.20;;;;;;6125102;28;83990;-52
2023/02/09 03:28:30;;;;;;;55.15;32.75;;;21.80;32.30;;;;;;6119672;28;83649;-51
2023/02/09 03:31:30;;;;;;;48.38;30.52;;;21.80;32.10;;;;;;6122707;28;84925;-48
2023/02/09 03:34:31;;;;;;;53.47;32.97;;;21.80;32.20;;;;;;6127381;28;83061;-49
2023/02/09 03:37:31;;;;;;;51.88;31.33;;;21.80;32.20;;;;;;6136951;28;84379;-49
2023/02/09 03:40:32;;;;;;;49.80;31.65;;;21.80;32.20;;;;;;6135907;28;85390;-54
2023/02/09 03:46:52;;;;;;;53.25;31.70;;;21.80;32.20;;;;;;6120407;28;88961;-51
2023/02/09 03:49:53;;;;;;;56.17;32.65;;;21.70;32.10;;;;;;6119029;28;83319;-52
2023/02/09 03:52:53;;;;;;;55.50;32.58;;;21.70;32.20;;;;;;6125917;28;82956;-51
2023/02/09 03:55:54;;;;;;;58.25;31.88;;;21.70;32.10;;;;;;6127124;28;82943;-51
2023/02/09 03:58:54;;;;;;;49.78;31.20;;;21.80;32.70;;;;;;6113570;28;85015;-52
2023/02/09 04:01:55;;;;;;;54.45;32.45;;;21.80;31.90;;;;;;6121544;28;83049;-48
2023/02/09 04:04:55;;;;;;;51.45;31.38;;;21.80;31.80;;;;;;6127243;28;84649;-53
2023/02/09 04:07:59;;;;;;;53.67;32.30;;;21.90;31.60;;;;;;6124537;28;83944;-53
2023/02/09 04:10:59;;;;;;;54.72;31.60;;;21.90;31.50;;;;;;6121763;28;83146;-49
2023/02/09 04:14:00;;;;;;;53.47;29.92;;;22.00;31.30;;;;;;6123773;28;83281;-49
2023/02/09 04:17:00;;;;;;;49.67;30.50;;;22.00;31.20;;;;;;6113639;28;83928;-51
2023/02/09 04:20:01;;;;;;;47.55;27.90;;;22.10;31.20;;;;;;6119085;28;83662;-51
2023/02/09 04:23:02;;;;;;;43.58;26.60;;;22.20;31.30;;;;;;6125588;28;83338;-53
2023/02/09 04:26:02;;;;;;;43.67;26.65;;;22.30;31.20;;;;;;6121059;28;83660;-53
2023/02/09 04:29:03;;;;;;;44.33;26.75;;;22.30;31.20;;;;;;6114368;28;85518;-53
2023/02/09 04:32:03;;;;;;;41.42;25.13;;;22.30;31.10;;;;;;6127258;28;83302;-49
2023/02/09 04:35:04;;;;;;;41.83;26.50;;;22.40;31.20;;;;;;6122158;28;83621;-55
2023/02/09 04:38:04;;;;;;;43.60;26.52;;;22.40;31.00;;;;;;6111638;28;83095;-53
2023/02/09 04:41:05;;;;;;;44.67;27.45;;;22.50;31.10;;;;;;6112131;28;83495;-51
2023/02/09 04:44:05;;;;;;;46.33;26.58;;;22.50;30.90;;;;;;6105961;28;83091;-53
2023/02/09 04:47:06;;;;;;;41.10;26.05;;;22.60;30.80;;;;;;6123189;28;84987;-57
2023/02/09 04:50:07;;;;;;;42.95;27.10;;;22.60;30.70;;;;;;6093439;28;83307;-52
2023/02/09 04:53:07;;;;;;;43.67;26.35;;;22.60;30.60;;;;;;6104413;28;83857;-57
2023/02/09 04:56:08;;;;;;;44.78;27.60;;;22.70;30.90;;;;;;6088008;28;85242;-54
2023/02/09 05:02:28;;;;;;;45.97;26.67;;;22.80;30.90;;;;;;6114018;28;83208;-54
2023/02/09 05:05:28;;;;;;;48.53;27.90;;;22.80;30.80;;;;;;6133217;28;88755;-53
2023/02/09 05:08:29;;;;;;;45.20;26.80;;;22.80;30.40;;;;;;6126037;28;83768;-64
2023/02/09 05:11:29;;;;;;;43.30;25.90;;;22.80;31.00;;;;;;6118577;28;83168;-54
2023/02/09 05:14:30;;;;;;;43.92;26.60;;;22.80;30.60;;;;;;6116512;28;83584;-60
2023/02/09 05:17:30;;;;;;;44.22;26.00;;;22.80;31.00;;;;;;6110326;28;83012;-53
2023/02/09 05:20:31;;;;;;;56.50;25.75;;;22.90;31.30;;;;;;6116859;28;83614;-51
2023/02/09 05:23:31;;;;;;;47.28;27.25;;;22.90;32.00;;;;;;6122537;28;83280;-58
2023/02/09 05:26:32;;;;;;;40.28;24.80;;;22.90;31.90;;;;;;6112342;28;86886;-55
2023/02/09 05:29:33;;;;;;;35.25;21.73;;;22.90;32.70;;;;;;6118291;28;83515;-54
2023/02/09 05:32:33;;;;;;;31.80;20.33;;;22.80;33.70;;;;;;6126573;28;83543;-51
2023/02/09 05:35:34;;;;;;;28.83;17.23;;;22.70;34.70;;;;;;6113808;28;83331;-51
2023/02/09 05:38:34;;;;;;;30.52;18.10;;;22.70;35.60;;;;;;6111172;28;84096;-51
2023/02/09 05:44:54;;;;;;;25.90;16.05;;;22.70;37.00;;;;;;6117369;28;83014;-62
2023/02/09 05:47:55;;;;;;;31.30;17.08;;;22.60;37.40;;;;;;6124260;28;82948;-58
2023/02/09 05:50:55;;;;;;;27.05;15.73;;;22.60;37.60;;;;;;6110715;28;83008;-59
2023/02/09 05:53:56;;;;;;;22.92;14.32;;;22.60;38.20;;;;;;6123389;28;84612;-55
2023/02/09 05:56:56;;;;;;;26.58;15.15;;;22.60;38.40;;;;;;6111231;28;83297;-52
2023/02/09 05:59:57;;;;;;;24.48;15.32;;;22.60;38.50;;;;;;6121044;28;82954;-63
2023/02/09 06:02:57;;;;;;;24.60;15.73;;;22.50;38.80;;;;;;6119581;28;84254;-53
2023/02/09 06:05:58;;;;;;;26.88;15.85;;;22.50;39.10;;;;;;6110068;28;86669;-50
2023/02/09 06:08:58;;;;;;;22.90;13.55;;;22.50;39.30;;;;;;6115453;28;83412;-58
2023/02/09 06:11:59;;;;;;;22.95;15.18;;;22.40;39.50;;;;;;6118174;28;87737;-56
2023/02/09 06:14:59;;;;;;;25.02;14.82;;;22.40;39.50;;;;;;6104563;28;82908;-53
2023/02/09 06:18:00;;;;;;;27.35;15.65;;;22.30;39.60;;;;;;6107268;28;83173;-61
2023/02/09 06:21:00;;;;;;;22.17;14.38;;;22.30;40.00;;;;;;6107066;28;82993;-61
2023/02/09 06:24:01;;;;;;;21.75;13.93;;;22.20;39.60;;;;;;6108922;28;83513;-62
2023/02/09 06:27:02;;;;;;;23.90;14.95;;;22.20;39.30;;;;;;6118748;28;83892;-62
2023/02/09 06:30:02;;;;;;;26.20;16.17;;;22.20;38.60;;;;;;6121433;28;87209;-61
2023/02/09 06:33:03;;;;;;;24.90;16.40;;;22.20;37.70;;;;;;6128082;28;83552;-62
2023/02/09 06:36:03;;;;;;;28.50;17.20;;;22.30;37.20;;;;;;6127938;28;83077;-53
2023/02/09 06:39:04;;;;;;;28.75;17.33;;;22.30;36.50;;;;;;6138032;28;82983;-53
2023/02/09 06:42:04;;;;;;;31.25;19.20;;;22.20;36.00;;;;;;6124654;28;83201;-53
2023/02/09 06:45:05;;;;;;;30.77;19.42;;;22.20;35.50;;;;;;6121966;28;84054;-55
2023/02/09 06:48:05;;;;;;;29.10;19.27;;;22.20;35.00;;;;;;6111621;28;86054;-56
2023/02/09 06:51:06;;;;;;;30.05;20.08;;;22.20;34.70;;;;;;6100194;28;86489;-55
2023/02/09 06:54:06;;;;;;;34.53;21.70;;;22.20;34.60;;;;;;6114524;28;84513;-61
2023/02/09 06:57:07;;;;;;;35.67;21.35;;;22.10;34.00;;;;;;6094303;28;83694;-61
2023/02/09 07:00:07;;;;;;;35.08;21.88;;;22.10;33.90;;;;;;6118626;28;83720;-61
2023/02/09 07:03:08;;;;;;;38.92;21.83;;;22.10;33.70;;;;;;6104096;28;83952;-61
2023/02/09 07:06:09;;;;;;;36.90;23.05;;;22.00;33.60;;;;;;6108117;28;84095;-62
2023/02/09 07:09:09;;;;;;;39.70;24.33;;;21.90;33.30;;;;;;6111461;28;85429;-61
2023/02/09 07:12:10;;;;;;;36.85;23.10;;;21.90;33.40;;;;;;6111254;28;84520;-60
2023/02/09 07:15:10;;;;;;;35.00;21.35;;;21.90;33.30;;;;;;6112649;28;83955;-62
2023/02/09 07:18:11;;;;;;;36.60;22.50;;;21.80;33.40;;;;;;6106615;28;83275;-61
2023/02/09 07:21:14;;;;;;;30.90;20.17;;;21.80;33.50;;;;;;6107630;28;83726;-61
2023/02/09 07:24:14;;;;;;;34.03;21.42;;;21.80;33.40;;;;;;6104367;28;83657;-62
2023/02/09 07:27:15;;;;;;;34.70;21.80;;;21.80;33.60;;;;;;6107859;28;83621;-60
2023/02/09 07:30:16;;;;;;;32.58;20.58;;;21.80;33.60;;;;;;6118764;28;85846;-61
2023/02/09 07:33:16;;;;;;;34.10;20.98;;;21.80;33.50;;;;;;6119591;28;83684;-61
2023/02/09 07:36:17;;;;;;;30.58;20.52;;;21.90;33.70;;;;;;6110284;28;84147;-61
2023/02/09 07:39:17;;;;;;;33.22;20.02;;;21.90;33.60;;;;;;6110182;28;84055;-60
2023/02/09 07:42:18;;;;;;;29.88;18.45;;;21.90;33.80;;;;;;6110396;28;83971;-60
2023/02/09 07:45:23;;;;;;;32.65;20.52;;;21.90;33.40;;;;;;6133488;28;85523;-60
2023/02/09 07:48:24;;;;;;;33.47;21.10;;;21.80;33.10;;;;;;6093604;28;83959;-60
2023/02/09 07:51:25;;;;;;;29.98;18.75;;;21.80;33.00;;;;;;6111542;28;85463;-60
2023/02/09 07:54:25;;;;;;;34.65;20.90;;;21.90;33.00;;;;;;6115453;28;85340;-59
2023/02/09 07:57:26;;;;;;;35.22;19.70;;;21.90;32.80;;;;;;6121753;28;84878;-58
2023/02/09 08:00:27;;;;;;;31.15;20.88;;;22.00;32.60;;;;;;6110624;28;86287;-60
2023/02/09 08:03:27;;;;;;;32.20;20.50;;;22.00;32.30;;;;;;6129430;28;85717;-61
2023/02/09 08:06:28;;;;;;;32.00;20.15;;;22.00;32.20;;;;;;6111508;28;83794;-60
2023/02/09 08:09:28;;;;;;;33.40;20.85;;;22.00;32.30;;;;;;6123670;28;83709;-60
2023/02/09 08:15:48;;;;;;;29.15;18.25;;;22.10;32.20;;;;;;6093102;28;83938;-61
2023/02/09 08:18:49;;;;;;;31.13;19.88;;;22.20;31.90;;;;;;6102249;28;84472;-61
2023/02/09 08:21:50;;;;;;;27.85;17.83;;;22.30;32.00;;;;;;6106390;28;83566;-60
2023/02/09 08:24:50;;;;;;;27.60;18.30;;;22.40;32.20;;;;;;6105180;28;83319;-60
2023/02/09 08:27:51;;;;;;;30.55;19.55;;;22.50;32.20;;;;;;6108813;28;83976;-66
2023/02/09 08:30:51;;;;;;;28.40;17.60;;;22.60;31.80;;;;;;6102563;28;83497;-65
2023/02/09 08:33:53;;;;;;;28.48;18.90;;;22.70;32.10;;;;;;6100366;28;85650;-58
2023/02/09 08:36:53;;;;;;;32.65;20.08;;;22.90;32.10;;;;;;6107614;28;83498;-57
2023/02/09 08:39:54;;;;;;;27.67;18.88;;;23.10;32.70;;;;;;6111148;28;83344;-55
2023/02/09 08:42:54;;;;;;;39.75;21.63;;;23.20;32.90;;;;;;6107121;28;84018;-56
2023/02/09 08:45:55;;;;;;;37.42;22.40;;;23.30;32.90;;;;;;6109033;28;83425;-57
2023/02/09 08:48:55;;;;;;;34.75;21.83;;;23.40;32.60;;;;;;6104299;28;83646;-55
2023/02/09 08:51:56;;;;;;;36.97;23.50;;;23.50;32.30;;;;;;6110676;28;84384;-59
2023/02/09 08:54:56;;;;;;;53.42;33.80;;;23.60;32.00;;;;;;6103446;28;83609;-55
2023/02/09 08:57:57;;;;;;;69.95;44.30;;;23.50;30.00;;;;;;6106082;28;83279;-57
2023/02/09 09:00:58;;;;;;;77.60;46.63;;;23.00;28.60;;;;;;6109348;28;84093;-56
2023/02/09 09:03:59;;;;;;;76.25;46.83;;;22.50;28.00;;;;;;6105179;28;83400;-53
2023/02/09 09:06:59;;;;;;;72.10;43.85;;;22.20;28.30;;;;;;6097338;28;83801;-53
2023/02/09 09:10:00;;;;;;;67.38;42.03;;;22.00;29.40;;;;;;6096327;28;83949;-53
2023/02/09 09:13:00;;;;;;;54.70;35.15;;;22.30;29.60;;;;;;6105664;28;83891;-54
2023/02/09 09:16:01;;;;;;;51.70;31.10;;;22.50;29.50;;;;;;6102569;28;84038;-53
2023/02/09 09:19:01;;;;;;;46.50;30.45;;;22.70;29.70;;;;;;6106263;28;83969;-54
2023/02/09 09:22:02;;;;;;;42.15;27.30;;;22.90;29.90;;;;;;6107737;28;90363;-65
2023/02/09 09:25:03;;;;;;;45.28;28.42;;;23.00;30.00;;;;;;6129257;28;83641;-64
2023/02/09 09:28:03;;;;;;;42.33;27.90;;;23.20;30.00;;;;;;6109225;28;84325;-66
2023/02/09 09:31:04;;;;;;;41.20;25.85;;;23.30;30.00;;;;;;6108674;28;83697;-62
2023/02/09 09:34:05;;;;;;;44.60;27.95;;;23.40;30.00;;;;;;6116462;28;83744;-61
2023/02/09 09:37:05;;;;;;;42.85;27.67;;;23.50;30.00;;;;;;6108781;28;84390;-61
2023/02/09 09:40:06;;;;;;;46.67;26.65;;;23.50;30.00;;;;;;6118564;28;84466;-62
2023/02/09 09:43:06;;;;;;;41.75;27.60;;;23.60;29.90;;;;;;6112796;28;85738;-61
2023/02/09 09:46:07;;;;;;;42.60;27.10;;;23.60;30.00;;;;;;6102464;28;83143;-60
2023/02/09 09:49:07;;;;;;;44.75;28.50;;;23.70;30.00;;;;;;6108245;28;83618;-60
2023/02/09 09:52:08;;;;;;;46.40;28.67;;;23.70;30.00;;;;;;6120530;28;85099;-59
2023/02/09 09:55:09;;;;;;;45.17;28.63;;;23.80;30.00;;;;;;6111719;28;84363;-60
2023/02/09 09:58:09;;;;;;;42.08;28.00;;;23.80;30.00;;;;;;6104616;28;84083;-60
2023/02/09 10:01:10;;;;;;;44.40;27.40;;;23.90;30.10;;;;;;6102570;28;83771;-59
2023/02/09 10:04:10;;;;;;;45.75;28.13;;;23.80;30.00;;;;;;6113627;28;83986;-60
2023/02/09 10:07:11;;;;;;;38.75;25.70;;;23.90;30.40;;;;;;6114314;28;83419;-61
2023/02/09 10:10:11;;;;;;;37.92;25.13;;;23.80;30.20;;;;;;6106014;28;84065;-61
2023/02/09 10:13:12;;;;;;;41.58;27.42;;;23.80;30.30;;;;;;6109477;28;83671;-59
2023/02/09 10:16:12;;;;;;;42.83;26.92;;;23.90;30.40;;;;;;6111535;28;87627;-54
2023/02/09 10:19:13;;;;;;;44.45;27.98;;;23.90;30.50;;;;;;6112823;28;83437;-53
2023/02/09 10:22:13;;;;;;;42.58;26.70;;;23.90;30.50;;;;;;6133392;28;83083;-56
2023/02/09 10:25:14;;;;;;;41.88;28.17;;;24.00;30.50;;;;;;6131256;28;83452;-54
2023/02/09 10:28:15;;;;;;;41.17;26.52;;;24.00;30.50;;;;;;6114289;28;84524;-57
2023/02/09 10:31:15;;;;;;;40.10;25.40;;;24.00;30.70;;;;;;6109256;28;83889;-55
2023/02/09 10:34:16;;;;;;;43.10;28.13;;;24.10;30.70;;;;;;6124439;28;83748;-52
2023/02/09 10:37:16;;;;;;;43.20;26.63;;;24.10;30.90;;;;;;6120380;28;83957;-55
2023/02/09 10:40:17;;;;;;;39.55;24.67;;;24.20;30.60;;;;;;6130843;28;83864;-52
2023/02/09 10:43:17;;;;;;;39.03;25.77;;;24.30;30.70;;;;;;6115044;28;84552;-55
2023/02/09 10:46:18;;;;;;;38.90;25.45;;;24.40;30.80;;;;;;6113495;28;84061;-50
2023/02/09 10:49:19;;;;;;;39.13;25.10;;;24.40;30.70;;;;;;6102770;28;83551;-54
2023/02/09 10:52:19;;;;;;;34.22;22.42;;;24.50;30.80;;;;;;6111370;28;83593;-59
2023/02/09 10:55:20;;;;;;;34.90;22.65;;;24.60;30.90;;;;;;6101103;28;84774;-54
2023/02/09 10:58:20;;;;;;;31.30;21.17;;;24.60;30.80;;;;;;6107140;28;83618;-52
2023/02/09 11:01:21;;;;;;;31.35;22.08;;;24.70;31.50;;;;;;6110146;28;84166;-55
2023/02/09 11:04:22;;;;;;;34.63;21.38;;;24.70;30.60;;;;;;6123781;28;83731;-54
2023/02/09 11:07:22;;;;;;;30.60;20.20;;;24.80;30.90;;;;;;6122506;28;84461;-53
2023/02/09 11:10:23;;;;;;;35.47;21.40;;;24.80;30.50;;;;;;6123061;28;83694;-53
2023/02/09 11:13:23;;;;;;;33.67;20.17;;;24.90;30.40;;;;;;6124195;28;84427;-50
2023/02/09 11:16:24;;;;;;;31.77;20.75;;;24.90;30.30;;;;;;6122949;28;84713;-54
2023/02/09 11:19:25;;;;;;;29.10;18.80;;;24.90;30.40;;;;;;6108191;28;83805;-53
2023/02/09 11:22:25;;;;;;;32.05;20.55;;;25.00;30.30;;;;;;6091197;28;84964;-49
2023/02/09 11:25:26;;;;;;;30.10;19.20;;;25.00;30.20;;;;;;6100061;28;84037;-48
2023/02/09 11:28:26;;;;;;;32.30;18.38;;;25.10;30.20;;;;;;6102685;28;89369;-51
2023/02/09 11:31:27;;;;;;;29.70;19.02;;;25.10;30.10;;;;;;6091357;28;86200;-51
2023/02/09 11:34:27;;;;;;;30.38;18.90;;;25.10;30.10;;;;;;6098515;28;83782;-52
2023/02/09 11:37:28;;;;;;;28.85;17.98;;;25.10;30.10;;;;;;6109226;28;83341;-52
2023/02/09 11:40:29;;;;;;;29.73;18.25;;;25.20;30.20;;;;;;6101356;28;83545;-55
2023/02/09 11:43:29;;;;;;;24.55;17.15;;;25.20;30.20;;;;;;6117671;28;85042;-51
2023/02/09 11:46:30;;;;;;;26.30;17.67;;;25.20;30.30;;;;;;6100387;28;85356;-55
2023/02/09 11:49:30;;;;;;;24.60;16.45;;;25.20;30.30;;;;;;6111491;28;84063;-61
2023/02/09 11:52:31;;;;;;;27.80;16.65;;;25.20;30.40;;;;;;6111507;28;83733;-62
2023/02/09 11:55:31;;;;;;;25.13;16.77;;;25.20;30.30;;;;;;6111516;28;83746;-62
2023/02/09 11:58:32;;;;;;;27.15;16.95;;;25.20;30.30;;;;;;6114169;28;84906;-61
2023/02/09 12:01:32;;;;;;;25.52;15.80;;;25.20;30.20;;;;;;6122710;28;86705;-60
2023/02/09 12:04:33;;;;;;;34.53;17.38;;;25.20;30.20;;;;;;6101200;28;84362;-60
2023/02/09 12:07:33;;;;;;;27.50;16.80;;;25.20;30.20;;;;;;6107310;28;83752;-62
2023/02/09 12:10:34;;;;;;;26.35;16.85;;;25.30;30.20;;;;;;6107455;28;83282;-61
2023/02/09 12:13:38;;;;;;;31.25;16.95;;;25.30;30.10;;;;;;6121809;28;83202;-61
2023/02/09 12:16:38;;;;;;;27.75;17.42;;;25.30;30.00;;;;;;6099332;28;83266;-61
2023/02/09 12:19:39;;;;;;;28.77;17.27;;;25.30;30.00;;;;;;6113257;28;83915;-61
2023/02/09 12:22:39;;;;;;;30.05;16.88;;;25.30;30.00;;;;;;6118707;28;83304;-61
2023/02/09 12:25:40;;;;;;;28.27;17.50;;;25.30;30.00;;;;;;6110527;28;85655;-60
2023/02/09 12:28:41;;;;;;;27.63;16.98;;;25.30;30.00;;;;;;6105577;28;83615;-61
2023/02/09 12:31:41;;;;;;;25.17;16.23;;;25.30;30.00;;;;;;6107086;28;83925;-61
2023/02/09 12:34:42;;;;;;;26.40;16.60;;;25.40;30.30;;;;;;6111162;28;83847;-62
2023/02/09 12:37:43;;;;;;;29.17;15.05;;;25.40;30.50;;;;;;6105691;28;83846;-62
2023/02/09 12:40:43;;;;;;;35.33;16.20;;;25.40;30.50;;;;;;6097972;28;87415;-62
2023/02/09 12:43:44;;;;;;;25.15;14.15;;;25.50;30.60;;;;;;6108131;28;84106;-62
2023/02/09 12:46:50;;;;;;;28.17;13.25;;;25.50;30.80;;;;;;6115024;28;84083;-62
2023/02/09 12:49:50;;;;;;;;;;;25.60;30.80;;;;;;6119576;28;84250;-62
2023/02/09 12:52:51;;;;;;;18.83;10.55;;;25.60;30.60;;;;;;6134587;28;82852;-60
2023/02/09 12:55:51;;;;;;;16.35;10.65;;;25.60;30.30;;;;;;6108556;28;83825;-60
2023/02/09 12:58:53;;;;;;;16.05;9.32;;;25.70;30.30;;;;;;6121503;28;84049;-62
2023/02/09 13:01:53;;;;;;;13.32;8.77;;;25.60;29.60;;;;;;6115815;28;82672;-61
2023/02/09 13:04:54;;;;;;;15.98;8.00;;;25.60;28.80;;;;;;6112001;28;87535;-61
2023/02/09 13:07:54;;;;;;;12.32;7.43;;;25.60;28.90;;;;;;6119742;28;81526;-61
2023/02/09 13:10:58;;;;;;;11.23;7.00;;;25.60;29.30;;;;;;6115901;28;81720;-62
2023/02/09 13:13:59;;;;;;;10.25;6.47;;;25.60;29.30;;;;;;6119357;28;81056;-61
2023/02/09 13:16:59;;;;;;;9.55;6.32;;;25.60;29.20;;;;;;6121217;28;81888;-61
2023/02/09 13:20:00;;;;;;;9.70;6.40;;;25.60;29.20;;;;;;6108840;28;80917;-61
2023/02/09 13:23:00;;;;;;;7.40;5.35;;;25.60;29.20;;;;;;6116457;28;82767;-61
2023/02/09 13:26:01;;;;;;;9.68;6.28;;;25.70;29.20;;;;;;6114253;28;80689;-62
2023/02/09 13:29:01;;;;;;;8.80;6.20;;;25.70;29.10;;;;;;6106852;28;80417;-63
2023/02/09 13:32:02;;;;;;;8.35;5.53;;;25.70;29.20;;;;;;6117012;28;81109;-63
2023/02/09 13:35:03;;;;;;;8.40;5.22;;;25.70;29.00;;;;;;6123359;28;81418;-61
2023/02/09 13:38:03;;;;;;;10.50;5.95;;;25.70;28.90;;;;;;6112751;28;83949;-60
2023/02/09 13:41:04;;;;;;;9.43;5.95;;;25.70;28.90;;;;;;6113612;28;80443;-62
2023/02/09 13:44:04;;;;;;;8.98;6.30;;;25.80;28.90;;;;;;6112220;28;85285;-62
2023/02/09 13:47:05;;;;;;;7.70;5.28;;;25.80;28.90;;;;;;6108862;28;84853;-62
2023/02/09 13:50:05;;;;;;;11.38;6.70;;;25.90;28.80;;;;;;6126506;28;80684;-62
2023/02/09 13:53:06;;;;;;;9.82;5.85;;;26.20;28.60;;;;;;6118375;28;83044;-61
2023/02/09 13:56:07;;;;;;;14.10;6.53;;;26.30;28.40;;;;;;6119978;28;81735;-62
2023/02/09 13:59:07;;;;;;;8.00;5.07;;;26.80;28.10;;;;;;6125776;28;81841;-61
2023/02/09 14:02:08;;;;;;;20.05;5.88;;;27.40;27.60;;;;;;6124861;28;82679;-60
2023/02/09 14:05:08;;;;;;;7.57;5.57;;;28.00;27.10;;;;;;6128590;28;80492;-60
2023/02/09 14:08:09;;;;;;;8.52;5.63;;;28.60;26.80;;;;;;6126378;28;82202;-60
2023/02/09 14:11:09;;;;;;;8.27;5.38;;;29.00;26.50;;;;;;6126656;28;80305;-61
2023/02/09 14:14:10;;;;;;;10.77;5.93;;;29.40;26.30;;;;;;6126833;28;80493;-60
2023/02/09 14:17:10;;;;;;;6.45;5.10;;;29.60;26.00;;;;;;6131945;28;84362;-60
2023/02/09 14:20:11;;;;;;;6.97;4.60;;;29.80;25.90;;;;;;6120810;28;83151;-60
2023/02/09 14:23:11;;;;;;;8.25;5.45;;;30.00;25.80;;;;;;6116118;28;80292;-61
2023/02/09 14:26:12;;;;;;;8.13;4.97;;;30.00;26.00;;;;;;6120335;28;80987;-59
2023/02/09 14:29:12;;;;;;;5.88;4.80;;;30.00;25.90;;;;;;6128492;28;80922;-60
2023/02/09 14:32:13;;;;;;;8.10;5.10;;;29.90;26.00;;;;;;6114916;28;81188;-59
2023/02/09 14:35:14;;;;;;;7.57;4.85;;;29.80;26.00;;;;;;6137264;28;81945;-60
2023/02/09 14:38:14;;;;;;;9.35;4.55;;;29.60;26.30;;;;;;6133788;28;80549;-60
2023/02/09 14:41:15;;;;;;;9.68;5.00;;;29.50;26.40;;;;;;6129654;28;81396;-59
2023/02/09 14:44:15;;;;;;;15.50;6.40;;;29.10;26.70;;;;;;6118537;28;85495;-61
2023/02/09 14:47:16;;;;;;;13.35;4.97;;;28.60;27.40;;;;;;6082399;28;86177;-61
2023/02/09 14:50:16;;;;;;;9.95;5.75;;;28.00;27.00;;;;;;6095241;28;80944;-62
2023/02/09 14:53:17;;;;;;;11.50;7.00;;;27.60;27.50;;;;;;6088554;28;82095;-58
2023/02/09 14:56:17;;;;;;;12.30;6.20;;;27.20;27.90;;;;;;6092664;28;80776;-61
2023/02/09 14:59:18;;;;;;;16.80;5.97;;;26.80;28.60;;;;;;6092692;28;82229;-62
2023/02/09 15:02:18;;;;;;;13.63;6.30;;;26.60;28.80;;;;;;6101808;28;87157;-60
2023/02/09 15:05:19;;;;;;;12.10;6.15;;;26.30;28.80;;;;;;6122878;28;86172;-59
2023/02/09 15:08:20;;;;;;;9.52;6.05;;;26.10;28.70;;;;;;6115146;28;81116;-61
2023/02/09 15:14:39;;;;;;;12.07;6.72;;;25.70;28.70;;;;;;6110630;28;80704;-59
2023/02/09 15:17:40;;;;;;;13.10;6.75;;;25.50;28.80;;;;;;6114590;28;80568;-60
2023/02/09 15:20:40;;;;;;;14.43;7.50;;;25.30;29.20;;;;;;6122290;28;80880;-62
2023/02/09 15:23:41;;;;;;;11.57;6.53;;;25.10;30.00;;;;;;6101330;28;80786;-60
2023/02/09 15:26:42;;;;;;;10.40;6.40;;;24.90;31.10;;;;;;6102395;28;80696;-60
2023/02/09 15:29:42;;;;;;;11.43;6.95;;;24.80;32.00;;;;;;6100397;28;83304;-60
2023/02/09 15:32:43;;;;;;;15.98;7.15;;;24.60;32.50;;;;;;6101086;28;80484;-60
2023/02/09 15:35:43;;;;;;;12.75;7.10;;;24.40;33.00;;;;;;6105404;28;81452;-59
2023/02/09 15:38:44;;;;;;;13.38;6.70;;;24.30;33.70;;;;;;6105593;28;84988;-59